sensor_id;sensor_type;location;lat;lon;timestamp;pressure;altitude;pressure_sealevel;temperature;humidity
70971;BME280;58632;51.718;19.446;2023-03-18T00:02:24;99835.85;;;1.65;100.00
70971;BME280;58632;51.718;19.446;2023-03-18T00:04:50;99839.19;;;1.65;100.00
70971;BME280;58632;51.718;19.446;2023-03-18T00:07:17;99837.02;;;1.64;100.00
70971;BME280;58632;51.718;19.446;2023-03-18T00:09:42;99837.27;;;1.61;100.00
70971;BME280;58632;51.718;19.446;2023-03-18T00:12:08;99835.64;;;1.59;100.00
70971;BME280;58632;51.718;19.446;2023-03-18T00:14:35;99835.52;;;1.58;100.00
70971;BME280;58632;51.718;19.446;2023-03-18T00:17:00;99836.83;;;1.59;100.00
70971;BME280;58632;51.718;19.446;2023-03-18T00:19:27;99833.16;;;1.57;100.00
70971;BME280;58632;51.718;19.446;2023-03-18T00:21:52;99835.89;;;1.55;100.00
70971;BME280;58632;51.718;19.446;2023-03-18T00:24:18;99840.77;;;1.50;100.00
70971;BME280;58632;51.718;19.446;2023-03-18T00:26:44;99845.39;;;1.46;100.00
70971;BME280;58632;51.718;19.446;2023-03-18T00:29:10;99840.35;;;1.44;100.00
70971;BME280;58632;51.718;19.446;2023-03-18T00:31:36;99837.96;;;1.39;100.00
70971;BME280;58632;51.718;19.446;2023-03-18T00:34:04;99838.95;;;1.36;100.00
70971;BME280;58632;51.718;19.446;2023-03-18T00:36:30;99839.60;;;1.34;100.00
70971;BME280;58632;51.718;19.446;2023-03-18T00:38:56;99840.48;;;1.31;100.00
70971;BME280;58632;51.718;19.446;2023-03-18T00:41:25;99838.27;;;1.30;100.00
70971;BME280;58632;51.718;19.446;2023-03-18T00:43:51;99832.06;;;1.30;100.00
70971;BME280;58632;51.718;19.446;2023-03-18T00:46:25;99830.30;;;1.26;100.00
70971;BME280;58632;51.718;19.446;2023-03-18T00:48:51;99829.52;;;1.22;100.00
70971;BME280;58632;51.718;19.446;2023-03-18T00:51:18;99823.52;;;1.20;100.00
70971;BME280;58632;51.718;19.446;2023-03-18T00:53:46;99820.75;;;1.19;100.00
70971;BME280;58632;51.718;19.446;2023-03-18T00:56:12;99815.55;;;1.13;100.00
70971;BME280;58632;51.718;19.446;2023-03-18T00:58:38;99810.95;;;1.11;100.00
70971;BME280;58632;51.718;19.446;2023-03-18T01:01:05;99807.83;;;1.06;100.00
70971;BME280;58632;51.718;19.446;2023-03-18T01:03:31;99802.95;;;1.03;100.00
70971;BME280;58632;51.718;19.446;2023-03-18T01:05:58;99799.45;;;1.03;100.00
70971;BME280;58632;51.718;19.446;2023-03-18T01:08:24;99793.64;;;1.04;100.00
70971;BME280;58632;51.718;19.446;2023-03-18T01:10:49;99791.21;;;1.05;100.00
70971;BME280;58632;51.718;19.446;2023-03-18T01:13:15;99791.42;;;1.05;100.00
70971;BME280;58632;51.718;19.446;2023-03-18T01:15:40;99785.54;;;1.03;100.00
70971;BME280;58632;51.718;19.446;2023-03-18T01:18:07;99786.51;;;1.02;100.00
70971;BME280;58632;51.718;19.446;2023-03-18T01:20:36;99784.01;;;1.01;100.00
70971;BME280;58632;51.718;19.446;2023-03-18T01:23:02;99775.71;;;1.02;100.00
70971;BME280;58632;51.718;19.446;2023-03-18T01:25:28;99776.15;;;1.03;100.00
70971;BME280;58632;51.718;19.446;2023-03-18T01:27:53;99774.99;;;1.00;100.00
70971;BME280;58632;51.718;19.446;2023-03-18T01:30:20;99779.78;;;0.98;100.00
70971;BME280;58632;51.718;19.446;2023-03-18T01:32:45;99775.15;;;0.99;100.00
70971;BME280;58632;51.718;19.446;2023-03-18T01:35:12;99770.02;;;1.00;100.00
70971;BME280;58632;51.718;19.446;2023-03-18T01:37:38;99773.00;;;0.99;100.00
70971;BME280;58632;51.718;19.446;2023-03-18T01:40:04;99773.99;;;0.95;100.00
70971;BME280;58632;51.718;19.446;2023-03-18T01:42:31;99774.96;;;0.95;100.00
70971;BME280;58632;51.718;19.446;2023-03-18T01:45:17;99770.98;;;0.95;100.00
70971;BME280;58632;51.718;19.446;2023-03-18T01:47:44;99770.80;;;0.95;100.00
70971;BME280;58632;51.718;19.446;2023-03-18T01:50:14;99771.00;;;0.93;100.00
70971;BME280;58632;51.718;19.446;2023-03-18T01:52:42;99775.14;;;0.92;100.00
70971;BME280;58632;51.718;19.446;2023-03-18T01:55:11;99778.11;;;0.91;100.00
70971;BME280;58632;51.718;19.446;2023-03-18T01:57:38;99778.15;;;0.90;100.00
70971;BME280;58632;51.718;19.446;2023-03-18T02:00:06;99775.40;;;0.90;100.00
70971;BME280;58632;51.718;19.446;2023-03-18T02:02:35;99777.15;;;0.93;100.00
70971;BME280;58632;51.718;19.446;2023-03-18T02:05:03;99781.21;;;0.95;100.00
70971;BME280;58632;51.718;19.446;2023-03-18T02:07:31;99781.55;;;0.95;100.00
70971;BME280;58632;51.718;19.446;2023-03-18T02:09:59;99774.65;;;0.97;100.00
70971;BME280;58632;51.718;19.446;2023-03-18T02:12:30;99779.40;;;0.99;100.00
70971;BME280;58632;51.718;19.446;2023-03-18T02:14:58;99781.33;;;0.97;100.00
70971;BME280;58632;51.718;19.446;2023-03-18T02:17:28;99778.20;;;0.96;100.00
70971;BME280;58632;51.718;19.446;2023-03-18T02:22:40;99771.95;;;0.95;100.00
70971;BME280;58632;51.718;19.446;2023-03-18T02:27:37;99771.58;;;0.97;100.00
70971;BME280;58632;51.718;19.446;2023-03-18T02:30:07;99770.27;;;1.00;100.00
70971;BME280;58632;51.718;19.446;2023-03-18T02:32:34;99764.05;;;1.01;100.00
70971;BME280;58632;51.718;19.446;2023-03-18T02:35:02;99765.40;;;1.00;100.00
70971;BME280;58632;51.718;19.446;2023-03-18T02:37:28;99764.30;;;0.98;100.00
70971;BME280;58632;51.718;19.446;2023-03-18T02:39:54;99771.68;;;0.97;100.00
70971;BME280;58632;51.718;19.446;2023-03-18T02:42:26;99773.70;;;0.93;100.00
70971;BME280;58632;51.718;19.446;2023-03-18T02:44:52;99769.38;;;0.91;100.00
70971;BME280;58632;51.718;19.446;2023-03-18T02:47:18;99765.49;;;0.90;100.00
70971;BME280;58632;51.718;19.446;2023-03-18T02:49:45;99759.27;;;0.90;100.00
70971;BME280;58632;51.718;19.446;2023-03-18T02:52:11;99758.58;;;0.89;100.00
70971;BME280;58632;51.718;19.446;2023-03-18T02:54:36;99759.67;;;0.84;100.00
70971;BME280;58632;51.718;19.446;2023-03-18T02:57:02;99758.61;;;0.80;100.00
70971;BME280;58632;51.718;19.446;2023-03-18T02:59:27;99758.90;;;0.80;100.00
70971;BME280;58632;51.718;19.446;2023-03-18T03:01:54;99760.13;;;0.80;100.00
70971;BME280;58632;51.718;19.446;2023-03-18T03:04:21;99759.64;;;0.79;100.00
70971;BME280;58632;51.718;19.446;2023-03-18T03:06:47;99760.80;;;0.75;100.00
70971;BME280;58632;51.718;19.446;2023-03-18T03:09:13;99758.95;;;0.73;100.00
70971;BME280;58632;51.718;19.446;2023-03-18T03:11:39;99756.97;;;0.70;100.00
70971;BME280;58632;51.718;19.446;2023-03-18T03:14:05;99759.73;;;0.69;100.00
70971;BME280;58632;51.718;19.446;2023-03-18T03:16:31;99759.36;;;0.66;100.00
70971;BME280;58632;51.718;19.446;2023-03-18T03:18:56;99759.45;;;0.62;100.00
70971;BME280;58632;51.718;19.446;2023-03-18T03:21:22;99756.52;;;0.59;100.00
70971;BME280;58632;51.718;19.446;2023-03-18T03:23:47;99757.27;;;0.55;100.00
70971;BME280;58632;51.718;19.446;2023-03-18T03:26:13;99756.21;;;0.49;100.00
70971;BME280;58632;51.718;19.446;2023-03-18T03:28:39;99754.77;;;0.45;100.00
70971;BME280;58632;51.718;19.446;2023-03-18T03:31:05;99752.21;;;0.43;100.00
70971;BME280;58632;51.718;19.446;2023-03-18T03:33:31;99753.23;;;0.42;100.00
70971;BME280;58632;51.718;19.446;2023-03-18T03:35:57;99757.09;;;0.39;100.00
70971;BME280;58632;51.718;19.446;2023-03-18T03:38:24;99765.42;;;0.37;100.00
70971;BME280;58632;51.718;19.446;2023-03-18T03:40:49;99765.81;;;0.32;100.00
70971;BME280;58632;51.718;19.446;2023-03-18T03:43:15;99765.71;;;0.29;100.00
70971;BME280;58632;51.718;19.446;2023-03-18T03:45:41;99767.52;;;0.24;100.00
70971;BME280;58632;51.718;19.446;2023-03-18T03:48:08;99767.38;;;0.17;100.00
70971;BME280;58632;51.718;19.446;2023-03-18T03:50:33;99769.64;;;0.17;100.00
70971;BME280;58632;51.718;19.446;2023-03-18T03:52:59;99763.80;;;0.16;100.00
70971;BME280;58632;51.718;19.446;2023-03-18T03:55:25;99765.76;;;0.16;100.00
70971;BME280;58632;51.718;19.446;2023-03-18T03:57:51;99762.78;;;0.15;100.00
70971;BME280;58632;51.718;19.446;2023-03-18T04:00:18;99754.64;;;0.14;100.00
70971;BME280;58632;51.718;19.446;2023-03-18T04:02:45;99750.75;;;0.14;100.00
70971;BME280;58632;51.718;19.446;2023-03-18T04:05:11;99756.11;;;0.11;100.00
70971;BME280;58632;51.718;19.446;2023-03-18T04:07:37;99754.58;;;0.08;100.00
70971;BME280;58632;51.718;19.446;2023-03-18T04:10:03;99756.30;;;0.08;100.00
70971;BME280;58632;51.718;19.446;2023-03-18T04:12:29;99752.79;;;0.07;100.00
70971;BME280;58632;51.718;19.446;2023-03-18T04:14:55;99756.92;;;0.06;100.00
70971;BME280;58632;51.718;19.446;2023-03-18T04:17:20;99759.97;;;0.04;100.00
70971;BME280;58632;51.718;19.446;2023-03-18T04:19:46;99763.24;;;0.03;100.00
70971;BME280;58632;51.718;19.446;2023-03-18T04:22:11;99761.38;;;-0.01;100.00
70971;BME280;58632;51.718;19.446;2023-03-18T04:24:37;99761.08;;;-0.03;100.00
70971;BME280;58632;51.718;19.446;2023-03-18T04:27:02;99761.94;;;-0.07;100.00
70971;BME280;58632;51.718;19.446;2023-03-18T04:29:28;99762.89;;;-0.10;100.00
70971;BME280;58632;51.718;19.446;2023-03-18T04:31:54;99762.23;;;-0.11;100.00
70971;BME280;58632;51.718;19.446;2023-03-18T04:34:21;99765.64;;;-0.13;100.00
70971;BME280;58632;51.718;19.446;2023-03-18T04:36:46;99766.80;;;-0.16;100.00
70971;BME280;58632;51.718;19.446;2023-03-18T04:39:12;99771.40;;;-0.18;100.00
70971;BME280;58632;51.718;19.446;2023-03-18T04:41:37;99775.20;;;-0.20;100.00
70971;BME280;58632;51.718;19.446;2023-03-18T04:44:03;99774.34;;;-0.25;100.00
70971;BME280;58632;51.718;19.446;2023-03-18T04:46:29;99778.81;;;-0.29;100.00
70971;BME280;58632;51.718;19.446;2023-03-18T04:48:57;99779.19;;;-0.33;100.00
70971;BME280;58632;51.718;19.446;2023-03-18T04:51:23;99774.19;;;-0.33;100.00
70971;BME280;58632;51.718;19.446;2023-03-18T04:53:48;99774.66;;;-0.33;100.00
70971;BME280;58632;51.718;19.446;2023-03-18T04:56:14;99776.13;;;-0.32;100.00
70971;BME280;58632;51.718;19.446;2023-03-18T04:58:40;99774.80;;;-0.31;100.00
70971;BME280;58632;51.718;19.446;2023-03-18T05:01:05;99773.52;;;-0.30;100.00
70971;BME280;58632;51.718;19.446;2023-03-18T05:03:31;99776.34;;;-0.28;100.00
70971;BME280;58632;51.718;19.446;2023-03-18T05:05:56;99774.16;;;-0.26;100.00
70971;BME280;58632;51.718;19.446;2023-03-18T05:08:22;99774.61;;;-0.25;100.00
70971;BME280;58632;51.718;19.446;2023-03-18T05:10:48;99776.75;;;-0.22;100.00
70971;BME280;58632;51.718;19.446;2023-03-18T05:13:14;99776.60;;;-0.20;100.00
70971;BME280;58632;51.718;19.446;2023-03-18T05:15:40;99780.31;;;-0.16;100.00
70971;BME280;58632;51.718;19.446;2023-03-18T05:18:06;99779.63;;;-0.10;100.00
70971;BME280;58632;51.718;19.446;2023-03-18T05:20:32;99778.81;;;-0.02;100.00
70971;BME280;58632;51.718;19.446;2023-03-18T05:22:58;99780.09;;;0.07;100.00
70971;BME280;58632;51.718;19.446;2023-03-18T05:25:24;99779.04;;;0.14;100.00
70971;BME280;58632;51.718;19.446;2023-03-18T05:27:50;99783.23;;;0.24;100.00
70971;BME280;58632;51.718;19.446;2023-03-18T05:30:16;99781.61;;;0.35;100.00
70971;BME280;58632;51.718;19.446;2023-03-18T05:32:41;99783.63;;;0.46;100.00
70971;BME280;58632;51.718;19.446;2023-03-18T05:35:07;99782.17;;;0.60;100.00
70971;BME280;58632;51.718;19.446;2023-03-18T05:37:33;99787.29;;;0.78;100.00
70971;BME280;58632;51.718;19.446;2023-03-18T05:39:59;99785.19;;;1.00;100.00
70971;BME280;58632;51.718;19.446;2023-03-18T05:42:25;99787.96;;;1.19;100.00
70971;BME280;58632;51.718;19.446;2023-03-18T05:44:51;99791.05;;;1.29;100.00
70971;BME280;58632;51.718;19.446;2023-03-18T05:47:16;99791.27;;;1.40;100.00
70971;BME280;58632;51.718;19.446;2023-03-18T05:49:42;99791.77;;;1.52;100.00
70971;BME280;58632;51.718;19.446;2023-03-18T05:52:07;99793.98;;;1.63;100.00
70971;BME280;58632;51.718;19.446;2023-03-18T05:54:34;99794.16;;;1.80;100.00
70971;BME280;58632;51.718;19.446;2023-03-18T05:57:00;99795.73;;;2.05;100.00
70971;BME280;58632;51.718;19.446;2023-03-18T05:59:25;99793.83;;;2.21;100.00
70971;BME280;58632;51.718;19.446;2023-03-18T06:01:51;99797.48;;;2.36;100.00
70971;BME280;58632;51.718;19.446;2023-03-18T06:04:18;99803.14;;;2.51;100.00
70971;BME280;58632;51.718;19.446;2023-03-18T06:06:43;99803.80;;;2.65;100.00
70971;BME280;58632;51.718;19.446;2023-03-18T06:09:10;99803.81;;;2.83;100.00
70971;BME280;58632;51.718;19.446;2023-03-18T06:11:36;99802.62;;;3.10;100.00
70971;BME280;58632;51.718;19.446;2023-03-18T06:14:02;99805.63;;;3.31;100.00
70971;BME280;58632;51.718;19.446;2023-03-18T06:16:31;99802.23;;;3.45;100.00
70971;BME280;58632;51.718;19.446;2023-03-18T06:18:57;99803.38;;;3.64;100.00
70971;BME280;58632;51.718;19.446;2023-03-18T06:21:23;99808.52;;;3.84;99.71
70971;BME280;58632;51.718;19.446;2023-03-18T06:23:49;99808.64;;;3.93;96.19
70971;BME280;58632;51.718;19.446;2023-03-18T06:26:15;99807.77;;;3.95;94.81
70971;BME280;58632;51.718;19.446;2023-03-18T06:28:40;99807.16;;;3.99;95.21
70971;BME280;58632;51.718;19.446;2023-03-18T06:31:06;99805.02;;;4.02;94.62
70971;BME280;58632;51.718;19.446;2023-03-18T06:33:32;99806.14;;;4.07;92.90
70971;BME280;58632;51.718;19.446;2023-03-18T06:35:58;99806.14;;;4.08;90.74
70971;BME280;58632;51.718;19.446;2023-03-18T06:38:24;99804.90;;;4.06;89.20
70971;BME280;58632;51.718;19.446;2023-03-18T06:40:50;99808.72;;;4.00;89.27
70971;BME280;58632;51.718;19.446;2023-03-18T06:43:15;99813.61;;;3.97;89.16
70971;BME280;58632;51.718;19.446;2023-03-18T06:45:41;99815.05;;;3.89;86.89
70971;BME280;58632;51.718;19.446;2023-03-18T06:48:07;99814.59;;;3.85;88.90
70971;BME280;58632;51.718;19.446;2023-03-18T06:50:34;99812.41;;;3.85;89.73
70971;BME280;58632;51.718;19.446;2023-03-18T06:53:00;99812.41;;;3.85;88.40
70971;BME280;58632;51.718;19.446;2023-03-18T06:55:25;99818.20;;;3.88;89.20
70971;BME280;58632;51.718;19.446;2023-03-18T06:57:52;99816.54;;;3.98;88.95
70971;BME280;58632;51.718;19.446;2023-03-18T07:00:18;99819.29;;;4.13;88.59
70971;BME280;58632;51.718;19.446;2023-03-18T07:02:43;99816.27;;;4.32;85.40
70971;BME280;58632;51.718;19.446;2023-03-18T07:05:10;99822.48;;;4.43;84.70
70971;BME280;58632;51.718;19.446;2023-03-18T07:07:37;99820.91;;;4.62;83.90
70971;BME280;58632;51.718;19.446;2023-03-18T07:10:04;99821.11;;;4.72;80.34
70971;BME280;58632;51.718;19.446;2023-03-18T07:12:29;99817.10;;;4.79;78.36
70971;BME280;58632;51.718;19.446;2023-03-18T07:14:55;99818.86;;;4.96;80.21
70971;BME280;58632;51.718;19.446;2023-03-18T07:17:21;99822.21;;;5.11;77.39
70971;BME280;58632;51.718;19.446;2023-03-18T07:19:47;99823.30;;;5.24;75.20
70971;BME280;58632;51.718;19.446;2023-03-18T07:22:12;99820.47;;;5.31;73.91
70971;BME280;58632;51.718;19.446;2023-03-18T07:24:39;99818.73;;;5.43;74.33
70971;BME280;58632;51.718;19.446;2023-03-18T07:27:05;99819.52;;;5.61;73.82
70971;BME280;58632;51.718;19.446;2023-03-18T07:29:31;99816.89;;;5.78;70.10
70971;BME280;58632;51.718;19.446;2023-03-18T07:31:57;99808.40;;;5.93;68.61
70971;BME280;58632;51.718;19.446;2023-03-18T07:34:23;99811.30;;;6.14;69.46
70971;BME280;58632;51.718;19.446;2023-03-18T07:36:48;99808.19;;;6.45;68.97
70971;BME280;58632;51.718;19.446;2023-03-18T07:39:14;99810.27;;;6.70;66.55
70971;BME280;58632;51.718;19.446;2023-03-18T07:41:40;99815.45;;;6.87;61.81
70971;BME280;58632;51.718;19.446;2023-03-18T07:44:05;99814.94;;;6.98;61.57
70971;BME280;58632;51.718;19.446;2023-03-18T07:46:32;99810.61;;;6.96;59.04
70971;BME280;58632;51.718;19.446;2023-03-18T07:48:57;99807.95;;;6.92;58.44
70971;BME280;58632;51.718;19.446;2023-03-18T07:51:23;99802.67;;;6.86;59.62
70971;BME280;58632;51.718;19.446;2023-03-18T07:53:48;99792.02;;;6.85;57.41
70971;BME280;58632;51.718;19.446;2023-03-18T07:56:15;99793.39;;;6.98;60.23
70971;BME280;58632;51.718;19.446;2023-03-18T07:58:41;99787.95;;;7.19;59.28
70971;BME280;58632;51.718;19.446;2023-03-18T08:01:07;99786.88;;;7.43;59.56
70971;BME280;58632;51.718;19.446;2023-03-18T08:03:34;99785.42;;;7.76;63.56
70971;BME280;58632;51.718;19.446;2023-03-18T08:05:59;99774.27;;;8.12;58.76
70971;BME280;58632;51.718;19.446;2023-03-18T08:08:25;99775.95;;;8.33;56.10
70971;BME280;58632;51.718;19.446;2023-03-18T08:10:50;99771.58;;;8.44;52.75
70971;BME280;58632;51.718;19.446;2023-03-18T08:13:20;99774.52;;;8.57;53.20
70971;BME280;58632;51.718;19.446;2023-03-18T08:15:45;99780.00;;;8.60;50.88
70971;BME280;58632;51.718;19.446;2023-03-18T08:18:11;99776.02;;;8.65;51.63
70971;BME280;58632;51.718;19.446;2023-03-18T08:20:36;99776.06;;;8.76;53.11
70971;BME280;58632;51.718;19.446;2023-03-18T08:23:02;99776.04;;;8.93;52.94
70971;BME280;58632;51.718;19.446;2023-03-18T08:25:27;99773.55;;;8.97;49.82
70971;BME280;58632;51.718;19.446;2023-03-18T08:27:53;99774.02;;;8.92;49.70
70971;BME280;58632;51.718;19.446;2023-03-18T08:30:19;99774.31;;;8.99;51.62
70971;BME280;58632;51.718;19.446;2023-03-18T08:32:44;99772.86;;;9.20;53.03
70971;BME280;58632;51.718;19.446;2023-03-18T08:35:11;99771.25;;;9.33;50.48
70971;BME280;58632;51.718;19.446;2023-03-18T08:37:36;99768.73;;;9.36;49.16
70971;BME280;58632;51.718;19.446;2023-03-18T08:40:04;99767.66;;;9.20;48.21
70971;BME280;58632;51.718;19.446;2023-03-18T08:42:30;99769.33;;;9.17;49.82
70971;BME280;58632;51.718;19.446;2023-03-18T08:44:55;99772.00;;;9.21;50.61
70971;BME280;58632;51.718;19.446;2023-03-18T08:47:21;99770.31;;;9.21;50.75
70971;BME280;58632;51.718;19.446;2023-03-18T08:49:49;99769.11;;;9.27;52.10
70971;BME280;58632;51.718;19.446;2023-03-18T08:52:14;99770.50;;;9.37;51.54
70971;BME280;58632;51.718;19.446;2023-03-18T08:54:41;99772.35;;;9.37;49.20
70971;BME280;58632;51.718;19.446;2023-03-18T08:57:06;99770.53;;;9.29;50.06
70971;BME280;58632;51.718;19.446;2023-03-18T08:59:33;99770.64;;;9.27;49.90
70971;BME280;58632;51.718;19.446;2023-03-18T09:01:58;99768.55;;;9.24;50.01
70971;BME280;58632;51.718;19.446;2023-03-18T09:04:24;99767.28;;;9.24;51.11
70971;BME280;58632;51.718;19.446;2023-03-18T09:06:50;99771.38;;;9.31;52.90
70971;BME280;58632;51.718;19.446;2023-03-18T09:09:15;99762.30;;;9.41;51.50
70971;BME280;58632;51.718;19.446;2023-03-18T09:11:41;99766.27;;;9.52;48.44
70971;BME280;58632;51.718;19.446;2023-03-18T09:14:07;99760.76;;;9.59;46.65
70971;BME280;58632;51.718;19.446;2023-03-18T09:16:32;99756.14;;;9.72;47.93
70971;BME280;58632;51.718;19.446;2023-03-18T09:18:59;99755.65;;;9.93;47.91
70971;BME280;58632;51.718;19.446;2023-03-18T09:21:25;99755.34;;;10.18;47.09
70971;BME280;58632;51.718;19.446;2023-03-18T09:23:51;99752.27;;;10.42;47.43
70971;BME280;58632;51.718;19.446;2023-03-18T09:26:17;99748.70;;;10.66;44.33
70971;BME280;58632;51.718;19.446;2023-03-18T09:28:43;99747.02;;;10.74;43.13
70971;BME280;58632;51.718;19.446;2023-03-18T09:31:08;99744.89;;;10.75;42.08
70971;BME280;58632;51.718;19.446;2023-03-18T09:33:34;99742.60;;;10.78;42.47
70971;BME280;58632;51.718;19.446;2023-03-18T09:36:01;99743.39;;;10.86;43.81
70971;BME280;58632;51.718;19.446;2023-03-18T09:38:27;99743.23;;;11.02;43.04
70971;BME280;58632;51.718;19.446;2023-03-18T09:45:52;99738.20;;;11.43;40.77
70971;BME280;58632;51.718;19.446;2023-03-18T09:51:16;99737.56;;;11.50;38.31
70971;BME280;58632;51.718;19.446;2023-03-18T09:53:54;99736.98;;;11.59;38.96
70971;BME280;58632;51.718;19.446;2023-03-18T09:56:22;99731.71;;;11.72;39.97
70971;BME280;58632;51.718;19.446;2023-03-18T10:01:31;99726.11;;;12.21;40.33
70971;BME280;58632;51.718;19.446;2023-03-18T10:06:44;99727.60;;;12.57;39.70
70971;BME280;58632;51.718;19.446;2023-03-18T10:09:28;99725.44;;;12.68;38.75
70971;BME280;58632;51.718;19.446;2023-03-18T10:14:48;99723.41;;;12.89;40.06
70971;BME280;58632;51.718;19.446;2023-03-18T10:19:46;99719.30;;;12.97;36.81
70971;BME280;58632;51.718;19.446;2023-03-18T10:25:06;99712.28;;;12.72;37.06
70971;BME280;58632;51.718;19.446;2023-03-18T10:33:08;99715.63;;;12.70;37.01
70971;BME280;58632;51.718;19.446;2023-03-18T10:40:43;99703.20;;;12.90;36.77
70971;BME280;58632;51.718;19.446;2023-03-18T10:43:12;99697.87;;;13.11;37.47
70971;BME280;58632;51.718;19.446;2023-03-18T10:45:39;99696.25;;;13.32;37.12
70971;BME280;58632;51.718;19.446;2023-03-18T10:53:52;99690.58;;;13.71;36.83
70971;BME280;58632;51.718;19.446;2023-03-18T10:56:19;99690.11;;;13.76;36.08
70971;BME280;58632;51.718;19.446;2023-03-18T10:58:45;99692.20;;;13.75;34.46
70971;BME280;58632;51.718;19.446;2023-03-18T11:01:11;99689.38;;;13.68;35.37
70971;BME280;58632;51.718;19.446;2023-03-18T11:03:43;99686.45;;;13.55;33.28
70971;BME280;58632;51.718;19.446;2023-03-18T11:06:14;99687.46;;;13.45;34.04
70971;BME280;58632;51.718;19.446;2023-03-18T11:08:40;99687.98;;;13.42;34.70
70971;BME280;58632;51.718;19.446;2023-03-18T11:11:26;99687.16;;;13.50;35.65
70971;BME280;58632;51.718;19.446;2023-03-18T11:13:52;99682.93;;;13.53;34.55
70971;BME280;58632;51.718;19.446;2023-03-18T11:16:32;99682.05;;;13.45;33.79
70971;BME280;58632;51.718;19.446;2023-03-18T11:18:58;99680.26;;;13.39;33.55
70971;BME280;58632;51.718;19.446;2023-03-18T11:21:24;99680.70;;;13.32;33.61
70971;BME280;58632;51.718;19.446;2023-03-18T11:23:59;99672.72;;;13.31;34.05
70971;BME280;58632;51.718;19.446;2023-03-18T11:26:54;99671.56;;;13.41;34.11
70971;BME280;58632;51.718;19.446;2023-03-18T11:29:28;99670.23;;;13.42;33.54
70971;BME280;58632;51.718;19.446;2023-03-18T11:31:56;99667.57;;;13.44;34.90
70971;BME280;58632;51.718;19.446;2023-03-18T11:34:23;99665.40;;;13.61;35.61
70971;BME280;58632;51.718;19.446;2023-03-18T11:36:54;99659.14;;;13.66;33.76
70971;BME280;58632;51.718;19.446;2023-03-18T11:39:23;99657.27;;;13.70;33.10
70971;BME280;58632;51.718;19.446;2023-03-18T11:41:50;99653.80;;;13.74;33.69
70971;BME280;58632;51.718;19.446;2023-03-18T11:44:18;99655.08;;;13.85;33.09
70971;BME280;58632;51.718;19.446;2023-03-18T11:46:52;99654.52;;;13.93;32.99
70971;BME280;58632;51.718;19.446;2023-03-18T11:49:22;99654.77;;;13.83;32.95
70971;BME280;58632;51.718;19.446;2023-03-18T11:56:56;99648.98;;;13.79;33.29
70971;BME280;58632;51.718;19.446;2023-03-18T11:59:29;99648.20;;;13.73;32.80
70971;BME280;58632;51.718;19.446;2023-03-18T12:22:15;99633.45;;;13.85;31.13
70971;BME280;58632;51.718;19.446;2023-03-18T12:25:05;99637.84;;;14.01;31.83
70971;BME280;58632;51.718;19.446;2023-03-18T12:30:18;99637.92;;;14.17;31.52
70971;BME280;58632;51.718;19.446;2023-03-18T12:35:18;99638.75;;;14.16;32.51
70971;BME280;58632;51.718;19.446;2023-03-18T12:43:23;99640.45;;;13.99;33.52
70971;BME280;58632;51.718;19.446;2023-03-18T12:45:56;99638.06;;;13.98;33.52
70971;BME280;58632;51.718;19.446;2023-03-18T12:48:28;99640.30;;;14.02;33.28
70971;BME280;58632;51.718;19.446;2023-03-18T12:50:58;99642.66;;;14.05;33.59
70971;BME280;58632;51.718;19.446;2023-03-18T12:53:28;99635.67;;;14.05;33.70
70971;BME280;58632;51.718;19.446;2023-03-18T12:55:59;99631.48;;;14.06;34.04
70971;BME280;58632;51.718;19.446;2023-03-18T12:58:29;99631.33;;;14.12;34.45
70971;BME280;58632;51.718;19.446;2023-03-18T13:03:27;99624.06;;;14.17;34.15
70971;BME280;58632;51.718;19.446;2023-03-18T13:05:56;99621.25;;;14.14;34.11
70971;BME280;58632;51.718;19.446;2023-03-18T13:13:36;99615.54;;;14.21;34.07
70971;BME280;58632;51.718;19.446;2023-03-18T13:16:07;99614.40;;;14.12;33.67
70971;BME280;58632;51.718;19.446;2023-03-18T13:18:42;99608.60;;;14.10;34.18
70971;BME280;58632;51.718;19.446;2023-03-18T13:21:12;99610.29;;;14.08;33.87
70971;BME280;58632;51.718;19.446;2023-03-18T13:23:47;99617.33;;;14.02;33.45
70971;BME280;58632;51.718;19.446;2023-03-18T13:28:54;99607.36;;;13.99;34.25
70971;BME280;58632;51.718;19.446;2023-03-18T13:44:36;99609.42;;;13.91;34.39
70971;BME280;58632;51.718;19.446;2023-03-18T13:47:04;99609.15;;;14.04;34.90
70971;BME280;58632;51.718;19.446;2023-03-18T13:49:32;99605.96;;;14.13;34.47
70971;BME280;58632;51.718;19.446;2023-03-18T13:51:58;99604.52;;;14.13;33.90
70971;BME280;58632;51.718;19.446;2023-03-18T13:54:37;99602.77;;;14.12;33.58
70971;BME280;58632;51.718;19.446;2023-03-18T13:59:48;99601.91;;;14.07;33.57
70971;BME280;58632;51.718;19.446;2023-03-18T14:04:55;99603.17;;;14.07;34.08
70971;BME280;58632;51.718;19.446;2023-03-18T14:07:22;99603.84;;;14.11;34.48
70971;BME280;58632;51.718;19.446;2023-03-18T14:12:21;99600.44;;;14.19;34.52
70971;BME280;58632;51.718;19.446;2023-03-18T14:17:22;99596.56;;;14.29;34.23
70971;BME280;58632;51.718;19.446;2023-03-18T14:19:53;99599.67;;;14.37;33.96
70971;BME280;58632;51.718;19.446;2023-03-18T14:24:44;99596.81;;;14.42;33.72
70971;BME280;58632;51.718;19.446;2023-03-18T14:27:17;99591.78;;;14.45;33.61
70971;BME280;58632;51.718;19.446;2023-03-18T14:29:43;99591.24;;;14.43;33.19
70971;BME280;58632;51.718;19.446;2023-03-18T14:37:31;99587.96;;;14.37;32.82
70971;BME280;58632;51.718;19.446;2023-03-18T14:40:03;99587.04;;;14.41;33.02
70971;BME280;58632;51.718;19.446;2023-03-18T14:42:31;99579.27;;;14.42;32.84
70971;BME280;58632;51.718;19.446;2023-03-18T14:45:03;99581.86;;;14.42;32.80
70971;BME280;58632;51.718;19.446;2023-03-18T14:47:36;99582.30;;;14.37;32.74
70971;BME280;58632;51.718;19.446;2023-03-18T14:52:52;99576.95;;;14.26;32.70
70971;BME280;58632;51.718;19.446;2023-03-18T14:55:38;99571.80;;;14.22;33.25
70971;BME280;58632;51.718;19.446;2023-03-18T14:58:04;99569.61;;;14.14;33.81